createdAt,value
2023-02-18T00:01:35.776Z,14.05
2023-02-18T00:04:02.800Z,7.03
2023-02-18T00:06:33.032Z,8.30
2023-02-18T00:09:02.364Z,5.78
2023-02-18T00:11:31.868Z,7.13
2023-02-18T00:14:01.481Z,5.43
2023-02-18T00:16:29.912Z,5.00
2023-02-18T00:19:06.018Z,5.90
2023-02-18T00:21:34.390Z,4.90
2023-02-18T00:24:01.395Z,5.72
2023-02-18T00:26:28.531Z,6.78
2023-02-18T00:28:55.355Z,5.63
2023-02-18T00:31:25.590Z,6.13
2023-02-18T00:33:52.560Z,8.90
2023-02-18T00:36:21.970Z,4.82
2023-02-18T00:38:58.337Z,3.80
2023-02-18T00:41:27.431Z,4.63
2023-02-18T00:43:54.541Z,4.40
2023-02-18T00:46:22.975Z,4.10
2023-02-18T00:48:49.868Z,3.92
2023-02-18T00:51:17.145Z,3.25
2023-02-18T00:53:44.190Z,3.95
2023-02-18T00:56:11.350Z,4.28
2023-02-18T00:58:38.189Z,6.53
2023-02-18T01:01:07.867Z,4.47
2023-02-18T01:03:36.085Z,2.83
2023-02-18T01:06:04.334Z,3.47
2023-02-18T01:08:31.301Z,2.83
2023-02-18T01:10:59.305Z,4.65
2023-02-18T01:13:27.718Z,4.18
2023-02-18T01:15:55.185Z,2.30
2023-02-18T01:18:23.257Z,2.13
2023-02-18T01:20:50.269Z,2.47
2023-02-18T01:23:17.183Z,2.13
2023-02-18T01:25:44.807Z,3.38
2023-02-18T01:28:13.775Z,2.25
2023-02-18T01:30:42.013Z,2.70
2023-02-18T01:33:09.562Z,1.73
2023-02-18T01:35:39.791Z,2.38
2023-02-18T01:38:07.422Z,1.45
2023-02-18T01:40:34.507Z,1.73
2023-02-18T01:43:01.690Z,4.00
2023-02-18T01:45:34.837Z,1.23
2023-02-18T01:48:10.241Z,1.42
2023-02-18T01:50:41.898Z,1.55
2023-02-18T01:53:08.918Z,1.50
2023-02-18T01:55:38.338Z,2.15
2023-02-18T01:58:05.451Z,1.15
2023-02-18T02:00:32.935Z,2.85
2023-02-18T02:02:59.849Z,1.83
2023-02-18T02:05:31.297Z,0.52
2023-02-18T02:07:59.293Z,4.05
2023-02-18T02:10:40.706Z,1.17
2023-02-18T02:13:34.941Z,0.95
2023-02-18T02:16:17.408Z,1.73
2023-02-18T02:19:00.189Z,2.10
2023-02-18T02:22:04.578Z,0.80
2023-02-18T02:24:55.349Z,3.28
2023-02-18T02:27:26.676Z,3.42
2023-02-18T02:30:25.561Z,0.93
2023-02-18T02:33:21.642Z,0.95
2023-02-18T02:36:20.250Z,2.13
2023-02-18T02:39:00.533Z,1.92
2023-02-18T02:41:51.782Z,0.93
2023-02-18T02:44:38.766Z,1.85
2023-02-18T02:47:14.249Z,1.17
2023-02-18T02:50:15.435Z,2.47
2023-02-18T02:52:50.408Z,1.48
2023-02-18T02:55:17.456Z,5.32
2023-02-18T02:57:48.739Z,1.13
2023-02-18T03:00:19.533Z,1.52
2023-02-18T03:03:05.273Z,1.73
2023-02-18T03:05:53.457Z,1.63
2023-02-18T03:08:44.412Z,2.70
2023-02-18T03:11:14.623Z,0.45
2023-02-18T03:14:09.267Z,2.33
2023-02-18T03:17:02.530Z,1.90
2023-02-18T03:19:54.910Z,0.70
2023-02-18T03:22:30.933Z,4.60
2023-02-18T03:25:00.006Z,2.83
2023-02-18T03:27:52.513Z,1.30
2023-02-18T03:30:37.077Z,0.98
2023-02-18T03:33:07.905Z,3.92
2023-02-18T03:35:37.076Z,1.60
2023-02-18T03:38:19.062Z,0.73
2023-02-18T03:40:45.990Z,3.55
2023-02-18T03:43:13.164Z,3.35
2023-02-18T03:45:40.144Z,0.90
2023-02-18T03:48:07.360Z,0.50
2023-02-18T03:50:34.465Z,0.52
2023-02-18T03:53:01.713Z,1.98
2023-02-18T03:55:28.579Z,1.63
2023-02-18T03:57:55.638Z,0.60
2023-02-18T04:00:22.538Z,0.73
2023-02-18T04:02:49.579Z,2.15
2023-02-18T04:05:16.489Z,0.63
2023-02-18T04:07:43.549Z,3.17
2023-02-18T04:10:11.038Z,1.02
2023-02-18T04:12:38.176Z,4.20
2023-02-18T04:15:05.424Z,1.83
2023-02-18T04:17:33.951Z,2.38
2023-02-18T04:20:00.850Z,2.05
2023-02-18T04:22:27.917Z,0.95
2023-02-18T04:24:54.711Z,1.98
2023-02-18T04:27:21.842Z,1.58
2023-02-18T04:29:48.873Z,1.17
2023-02-18T04:32:16.066Z,1.05
2023-02-18T04:34:43.000Z,0.68
2023-02-18T04:37:10.052Z,2.08
2023-02-18T04:39:36.945Z,1.52
2023-02-18T04:42:08.926Z,3.40
2023-02-18T04:44:36.880Z,0.75
2023-02-18T04:47:05.687Z,1.05
2023-02-18T04:49:32.562Z,1.90
2023-02-18T04:51:59.684Z,3.47
2023-02-18T04:54:26.464Z,1.67
2023-02-18T04:56:54.216Z,2.55
2023-02-18T04:59:21.169Z,2.25
2023-02-18T05:01:48.264Z,0.88
2023-02-18T05:04:15.204Z,3.10
2023-02-18T05:06:43.146Z,2.30
2023-02-18T05:09:11.267Z,0.95
2023-02-18T05:11:38.380Z,1.58
2023-02-18T05:14:05.343Z,1.00
2023-02-18T05:16:32.532Z,0.50
2023-02-18T05:18:59.489Z,0.40
2023-02-18T05:21:26.751Z,7.22
2023-02-18T05:23:53.534Z,1.58
2023-02-18T05:26:20.658Z,1.02
2023-02-18T05:28:47.482Z,2.60
2023-02-18T05:31:14.586Z,1.73
2023-02-18T05:33:41.542Z,2.10
2023-02-18T05:36:09.033Z,1.33
2023-02-18T05:38:36.066Z,2.00
2023-02-18T05:41:03.339Z,1.77
2023-02-18T05:43:30.386Z,2.15
2023-02-18T05:45:57.463Z,1.90
2023-02-18T05:48:24.180Z,2.28
2023-02-18T05:50:53.960Z,1.25
2023-02-18T05:53:20.782Z,1.20
2023-02-18T05:55:47.861Z,1.83
2023-02-18T05:58:15.178Z,3.03
2023-02-18T06:00:42.413Z,2.53
2023-02-18T06:03:09.239Z,1.27
2023-02-18T06:05:36.362Z,1.73
2023-02-18T06:08:03.242Z,2.90
2023-02-18T06:10:30.376Z,1.38
2023-02-18T06:12:57.185Z,2.15
2023-02-18T06:15:24.263Z,1.67
2023-02-18T06:17:51.139Z,1.77
2023-02-18T06:20:18.363Z,1.63
2023-02-18T06:22:45.129Z,1.55
2023-02-18T06:25:12.206Z,1.73
2023-02-18T06:27:39.015Z,1.27
2023-02-18T06:30:06.889Z,1.73
2023-02-18T06:32:33.733Z,2.03
2023-02-18T06:35:00.780Z,1.13
2023-02-18T06:37:27.578Z,1.17
2023-02-18T06:39:54.765Z,0.90
2023-02-18T06:42:21.582Z,1.52
2023-02-18T06:44:48.772Z,2.13
2023-02-18T06:47:15.624Z,1.73
2023-02-18T06:49:42.705Z,1.70
2023-02-18T06:52:12.280Z,1.98
2023-02-18T06:54:39.312Z,1.00
2023-02-18T06:57:06.277Z,0.85
2023-02-18T06:59:33.378Z,2.60
2023-02-18T07:02:00.188Z,1.02
2023-02-18T07:04:27.270Z,1.40
2023-02-18T07:06:54.026Z,2.40
2023-02-18T07:09:21.073Z,0.98
2023-02-18T07:11:47.960Z,2.42
2023-02-18T07:14:15.423Z,1.13
2023-02-18T07:16:42.325Z,1.55
2023-02-18T07:19:09.445Z,0.55
2023-02-18T07:21:36.231Z,0.90
2023-02-18T07:24:03.477Z,1.50
2023-02-18T07:26:30.295Z,1.45
2023-02-18T07:28:57.369Z,1.27
2023-02-18T07:31:24.351Z,0.98
2023-02-18T07:33:53.929Z,1.33
2023-02-18T07:36:20.666Z,1.35
2023-02-18T07:38:47.757Z,2.97
2023-02-18T07:41:21.431Z,3.60
2023-02-18T07:43:49.086Z,1.33
2023-02-18T07:46:16.827Z,1.42
2023-02-18T07:48:44.000Z,5.60
2023-02-18T07:51:12.096Z,2.70
2023-02-18T07:53:39.581Z,2.42
2023-02-18T07:56:07.247Z,0.52
2023-02-18T07:58:37.152Z,0.75
2023-02-18T08:01:14.909Z,0.40
2023-02-18T08:03:42.714Z,0.65
2023-02-18T08:06:21.277Z,1.98
2023-02-18T08:08:48.321Z,5.72
2023-02-18T08:11:19.516Z,1.02
2023-02-18T08:13:48.439Z,0.85
2023-02-18T08:16:17.099Z,0.68
2023-02-18T08:18:44.870Z,1.15
2023-02-18T08:21:11.713Z,1.33
2023-02-18T08:23:39.091Z,1.30
2023-02-18T08:26:06.156Z,0.88
2023-02-18T08:28:33.750Z,0.73
2023-02-18T08:31:00.764Z,0.93
2023-02-18T08:33:28.924Z,1.23
2023-02-18T08:35:56.145Z,0.85
2023-02-18T08:38:24.389Z,1.15
2023-02-18T08:41:00.820Z,0.82
2023-02-18T08:43:27.873Z,1.02
2023-02-18T08:45:54.698Z,1.48
2023-02-18T08:48:21.784Z,0.90
2023-02-18T08:50:51.492Z,1.55
2023-02-18T08:53:18.908Z,1.13
2023-02-18T08:55:45.953Z,0.75
2023-02-18T08:58:13.255Z,0.98
2023-02-18T09:00:42.166Z,1.35
2023-02-18T09:03:13.109Z,1.15
2023-02-18T09:05:40.814Z,2.17
2023-02-18T09:08:07.911Z,1.65
2023-02-18T09:10:35.014Z,1.02
2023-02-18T09:13:02.057Z,0.80
2023-02-18T09:15:28.911Z,1.02
2023-02-18T09:17:55.997Z,1.85
2023-02-18T09:20:25.542Z,2.25
2023-02-18T09:22:52.628Z,2.60
2023-02-18T09:25:19.410Z,1.80
2023-02-18T09:27:46.468Z,1.38
2023-02-18T09:30:16.176Z,0.75
2023-02-18T09:32:43.274Z,0.65
2023-02-18T09:35:10.294Z,1.17
2023-02-18T09:37:38.241Z,2.67
2023-02-18T09:40:05.641Z,0.65
2023-02-18T09:42:34.907Z,1.20
2023-02-18T09:45:07.193Z,0.73
2023-02-18T09:47:39.707Z,1.75
2023-02-18T09:50:22.127Z,2.33
2023-02-18T09:52:49.343Z,1.02
2023-02-18T09:55:22.403Z,0.75
2023-02-18T09:58:00.133Z,1.02
2023-02-18T10:00:42.405Z,1.85
2023-02-18T10:03:16.575Z,1.00
2023-02-18T10:05:59.071Z,5.20
2023-02-18T10:08:34.546Z,1.50
2023-02-18T10:11:01.381Z,0.80
2023-02-18T10:13:32.155Z,1.40
2023-02-18T10:15:59.283Z,0.93
2023-02-18T10:21:18.370Z,1.25
2023-02-18T10:23:54.317Z,2.23
2023-02-18T10:26:21.951Z,1.52
2023-02-18T10:28:48.997Z,0.85
2023-02-18T10:31:23.623Z,1.40
2023-02-18T10:34:13.491Z,0.65
2023-02-18T10:36:46.436Z,1.23
2023-02-18T10:39:38.703Z,1.23
2023-02-18T10:42:14.193Z,0.95
2023-02-18T10:45:26.452Z,1.95
2023-02-18T10:47:58.886Z,2.00
2023-02-18T10:50:29.527Z,1.33
2023-02-18T10:53:01.490Z,1.17
2023-02-18T10:55:44.081Z,3.78
2023-02-18T10:58:34.254Z,0.90
2023-02-18T11:01:08.573Z,1.27
2023-02-18T11:03:44.590Z,0.88
2023-02-18T11:06:34.314Z,0.90
2023-02-18T11:09:02.490Z,1.02
2023-02-18T11:11:38.140Z,1.63
2023-02-18T11:14:06.840Z,1.25
2023-02-18T11:16:47.537Z,2.90
2023-02-18T11:19:37.709Z,1.00
2023-02-18T11:22:27.711Z,0.90
2023-02-18T11:24:56.984Z,3.25
2023-02-18T11:27:26.109Z,1.13
2023-02-18T11:30:00.016Z,1.35
2023-02-18T11:32:29.355Z,1.05
2023-02-18T11:34:56.428Z,1.08
2023-02-18T11:37:24.054Z,4.07
2023-02-18T11:39:54.651Z,2.15
2023-02-18T11:42:24.784Z,2.28
2023-02-18T11:44:57.700Z,1.60
2023-02-18T11:47:33.287Z,1.80
2023-02-18T11:50:04.386Z,1.33
2023-02-18T11:52:40.754Z,1.33
2023-02-18T11:55:24.985Z,1.98
2023-02-18T11:58:02.687Z,2.28
2023-02-18T12:00:42.641Z,2.25
2023-02-18T12:03:30.162Z,2.83
2023-02-18T12:06:03.297Z,2.53
2023-02-18T12:08:40.966Z,3.15
2023-02-18T12:11:14.555Z,1.20
2023-02-18T12:16:43.192Z,1.35
2023-02-18T12:19:42.444Z,1.77
2023-02-18T12:22:29.935Z,2.42
2023-02-18T12:25:08.776Z,1.30
2023-02-18T12:27:57.115Z,1.30
2023-02-18T12:30:49.844Z,4.50
2023-02-18T12:33:28.469Z,3.38
2023-02-18T12:36:28.726Z,1.63
2023-02-18T12:39:02.359Z,2.10
2023-02-18T12:41:53.646Z,1.05
2023-02-18T12:44:29.501Z,1.95
2023-02-18T12:46:59.498Z,2.70
2023-02-18T12:49:35.398Z,1.15
2023-02-18T12:52:18.626Z,1.30
2023-02-18T12:54:48.088Z,1.40
2023-02-18T12:57:40.984Z,1.15
2023-02-18T13:00:16.850Z,0.47
2023-02-18T13:02:46.936Z,1.33
2023-02-18T13:05:29.106Z,0.70
2023-02-18T13:08:11.280Z,0.60
2023-02-18T13:10:49.877Z,0.68
2023-02-18T13:13:23.399Z,0.32
2023-02-18T13:15:55.436Z,0.85
2023-02-18T13:18:29.174Z,1.10
2023-02-18T13:21:00.901Z,0.95
2023-02-18T13:23:36.880Z,1.30
2023-02-18T13:26:09.756Z,0.20
2023-02-18T13:28:49.978Z,0.45
2023-02-18T13:31:25.096Z,0.70
2023-02-18T13:34:04.205Z,0.40
2023-02-18T13:36:59.759Z,0.15
2023-02-18T13:39:27.294Z,0.57
2023-02-18T13:42:33.411Z,0.70
2023-02-18T13:45:00.373Z,0.30
2023-02-18T13:47:44.881Z,0.95
2023-02-18T13:50:14.666Z,0.82
2023-02-18T13:52:41.599Z,0.60
2023-02-18T13:55:21.005Z,0.32
2023-02-18T13:57:53.336Z,0.30
2023-02-18T14:00:34.041Z,0.68
2023-02-18T14:03:19.887Z,0.55
2023-02-18T14:05:47.111Z,0.57
2023-02-18T14:08:29.650Z,3.58
2023-02-18T14:11:16.941Z,0.30
2023-02-18T14:14:14.268Z,0.60
2023-02-18T14:17:15.207Z,0.90
2023-02-18T14:19:42.218Z,0.75
2023-02-18T14:22:39.546Z,11.63
2023-02-18T14:25:08.991Z,0.50
2023-02-18T14:27:37.683Z,0.20
2023-02-18T14:30:16.027Z,0.40
2023-02-18T14:32:44.766Z,1.35
2023-02-18T14:35:30.777Z,1.73
2023-02-18T14:38:35.453Z,0.47
2023-02-18T14:44:15.594Z,0.73
2023-02-18T14:47:13.469Z,1.48
2023-02-18T14:50:06.625Z,0.40
2023-02-18T14:52:38.788Z,0.35
2023-02-18T14:55:08.469Z,0.57
2023-02-18T14:57:48.547Z,1.27
2023-02-18T15:00:18.303Z,0.95
2023-02-18T15:02:49.434Z,0.57
2023-02-18T15:05:23.525Z,0.63
2023-02-18T15:07:57.416Z,2.03
2023-02-18T15:10:39.051Z,0.35
2023-02-18T15:13:13.565Z,1.70
2023-02-18T15:15:41.398Z,2.03
2023-02-18T15:18:20.652Z,9.45
2023-02-18T15:20:47.859Z,19.33
2023-02-18T15:23:16.782Z,24.48
2023-02-18T15:25:49.781Z,28.23
2023-02-18T15:28:29.106Z,32.23
2023-02-18T15:30:58.618Z,24.10
2023-02-18T15:33:29.122Z,30.63
2023-02-18T15:36:04.676Z,29.60
2023-02-18T15:38:32.278Z,32.25
2023-02-18T15:41:01.004Z,30.73
2023-02-18T15:43:28.254Z,34.92
2023-02-18T15:45:57.822Z,33.55
2023-02-18T15:48:33.695Z,36.58
2023-02-18T15:51:16.962Z,32.55
2023-02-18T15:53:50.498Z,39.67
2023-02-18T15:56:35.565Z,34.17
2023-02-18T15:59:19.989Z,43.55
2023-02-18T16:01:52.461Z,42.95
2023-02-18T16:04:22.283Z,49.90
2023-02-18T16:06:52.274Z,41.25
2023-02-18T16:09:34.037Z,47.92
2023-02-18T16:12:05.521Z,44.97
2023-02-18T16:14:46.369Z,41.95
2023-02-18T16:17:13.407Z,47.60
2023-02-18T16:20:03.244Z,43.45
2023-02-18T16:22:31.258Z,47.15
2023-02-18T16:25:08.789Z,42.47
2023-02-18T16:27:45.826Z,45.10
2023-02-18T16:30:24.926Z,46.40
2023-02-18T16:32:52.424Z,46.58
2023-02-18T16:35:20.064Z,41.28
2023-02-18T16:37:50.152Z,48.00
2023-02-18T16:40:26.108Z,44.88
2023-02-18T16:42:54.358Z,46.70
2023-02-18T16:45:24.393Z,47.10
2023-02-18T16:47:51.513Z,45.55
2023-02-18T16:50:20.925Z,46.92
2023-02-18T16:52:49.722Z,52.55
2023-02-18T16:55:22.664Z,47.72
2023-02-18T16:57:49.767Z,48.25
2023-02-18T17:00:18.054Z,49.70
2023-02-18T17:02:48.617Z,52.85
2023-02-18T17:05:26.848Z,46.75
2023-02-18T17:07:55.299Z,48.80
2023-02-18T17:10:22.197Z,52.78
2023-02-18T17:12:49.310Z,57.45
2023-02-18T17:15:34.526Z,55.35
2023-02-18T17:18:04.518Z,52.03
2023-02-18T17:20:32.650Z,28.92
2023-02-18T17:22:59.789Z,45.65
2023-02-18T17:25:34.601Z,49.67
2023-02-18T17:28:02.482Z,54.20
2023-02-18T17:30:30.752Z,53.10
2023-02-18T17:33:03.202Z,43.88
2023-02-18T17:35:30.768Z,52.95
2023-02-18T17:37:57.973Z,48.38
2023-02-18T17:40:27.568Z,51.13
2023-02-18T17:42:56.152Z,59.08
2023-02-18T17:45:32.098Z,57.15
2023-02-18T17:48:01.326Z,52.75
2023-02-18T17:50:29.884Z,55.45
2023-02-18T17:52:57.237Z,57.15
2023-02-18T17:55:29.631Z,53.47
2023-02-18T17:57:57.187Z,45.08
2023-02-18T18:00:30.729Z,47.47
2023-02-18T18:02:57.917Z,45.03
2023-02-18T18:05:26.407Z,53.17
2023-02-18T18:07:53.890Z,58.03
2023-02-18T18:10:23.285Z,54.75
2023-02-18T18:12:50.389Z,55.75
2023-02-18T18:15:43.962Z,55.65
2023-02-18T18:18:12.917Z,50.00
2023-02-18T18:20:41.243Z,44.55
2023-02-18T18:23:08.564Z,51.42
2023-02-18T18:25:41.018Z,56.65
2023-02-18T18:28:08.940Z,54.20
2023-02-18T18:30:39.199Z,56.80
2023-02-18T18:33:28.197Z,51.30
2023-02-18T18:35:56.861Z,57.47
2023-02-18T18:38:26.314Z,53.13
2023-02-18T18:40:54.178Z,47.40
2023-02-18T18:43:24.239Z,48.05
2023-02-18T18:45:51.838Z,51.53
2023-02-18T18:48:22.509Z,48.42
2023-02-18T18:50:50.363Z,51.58
2023-02-18T18:53:25.801Z,47.00
2023-02-18T18:55:55.594Z,47.40
2023-02-18T18:58:24.716Z,55.55
2023-02-18T19:00:58.574Z,50.35
2023-02-18T19:03:27.471Z,56.20
2023-02-18T19:05:54.688Z,46.35
2023-02-18T19:08:22.014Z,50.40
2023-02-18T19:10:56.844Z,55.70
2023-02-18T19:13:29.149Z,52.03
2023-02-18T19:16:08.803Z,54.00
2023-02-18T19:18:35.948Z,55.53
2023-02-18T19:21:04.657Z,55.40
2023-02-18T19:23:32.909Z,62.03
2023-02-18T19:26:00.121Z,56.85
2023-02-18T19:28:28.362Z,58.22
2023-02-18T19:30:55.236Z,54.95
2023-02-18T19:33:22.422Z,61.03
2023-02-18T19:35:49.540Z,55.25
2023-02-18T19:38:18.393Z,61.05
2023-02-18T19:40:46.421Z,60.22
2023-02-18T19:43:13.600Z,69.53
2023-02-18T19:45:46.352Z,52.55
2023-02-18T19:48:15.197Z,53.00
2023-02-18T19:50:43.377Z,51.22
2023-02-18T19:53:11.434Z,43.15
2023-02-18T19:55:38.945Z,28.25
2023-02-18T19:58:06.609Z,25.80
2023-02-18T20:00:33.664Z,21.77
2023-02-18T20:03:00.791Z,23.42
2023-02-18T20:05:27.804Z,27.33
2023-02-18T20:07:54.963Z,23.52
2023-02-18T20:10:22.138Z,19.73
2023-02-18T20:12:53.836Z,22.10
2023-02-18T20:15:21.186Z,26.58
2023-02-18T20:17:48.866Z,24.00
2023-02-18T20:20:16.287Z,22.05
2023-02-18T20:22:43.478Z,22.65
2023-02-18T20:25:10.709Z,24.80
2023-02-18T20:27:45.168Z,34.53
2023-02-18T20:30:17.959Z,21.90
2023-02-18T20:32:45.144Z,39.22
2023-02-18T20:35:11.970Z,35.50
2023-02-18T20:37:39.240Z,43.47
2023-02-18T20:40:06.441Z,45.47
2023-02-18T20:42:36.486Z,44.88
2023-02-18T20:45:03.433Z,45.88
2023-02-18T20:47:30.461Z,47.88
2023-02-18T20:49:57.326Z,45.90
2023-02-18T20:52:24.366Z,46.45
2023-02-18T20:54:51.174Z,27.08
2023-02-18T20:57:18.290Z,41.80
2023-02-18T20:59:46.686Z,44.60
2023-02-18T21:02:14.247Z,39.65
2023-02-18T21:04:41.062Z,40.97
2023-02-18T21:07:08.204Z,45.08
2023-02-18T21:09:35.095Z,40.92
2023-02-18T21:12:02.221Z,41.10
2023-02-18T21:14:29.073Z,42.20
2023-02-18T21:16:56.196Z,37.17
2023-02-18T21:19:22.986Z,37.80
2023-02-18T21:21:52.881Z,47.35
2023-02-18T21:24:19.863Z,39.40
2023-02-18T21:26:46.995Z,47.40
2023-02-18T21:29:16.067Z,39.75
2023-02-18T21:31:44.202Z,43.85
2023-02-18T21:34:13.786Z,25.48
2023-02-18T21:36:42.319Z,38.47
2023-02-18T21:39:11.120Z,25.60
2023-02-18T21:41:40.856Z,28.52
2023-02-18T21:44:08.939Z,30.67
2023-02-18T21:46:36.824Z,27.70
2023-02-18T21:49:10.728Z,22.23
2023-02-18T21:52:02.011Z,21.17
2023-02-18T21:54:36.888Z,9.02
2023-02-18T21:57:05.660Z,8.82
2023-02-18T21:59:34.060Z,9.68
2023-02-18T22:02:02.542Z,6.45
2023-02-18T22:04:31.540Z,4.25
2023-02-18T22:06:58.998Z,4.63
2023-02-18T22:09:26.600Z,3.03
2023-02-18T22:11:53.812Z,5.32
2023-02-18T22:14:21.507Z,7.03
2023-02-18T22:16:48.839Z,5.65
2023-02-18T22:19:15.744Z,3.47
2023-02-18T22:21:43.034Z,2.83
2023-02-18T22:24:12.594Z,5.07
2023-02-18T22:26:39.786Z,3.83
2023-02-18T22:29:06.617Z,2.90
2023-02-18T22:31:33.953Z,4.38
2023-02-18T22:34:01.206Z,4.60
2023-02-18T22:36:29.556Z,4.45
2023-02-18T22:38:57.808Z,3.97
2023-02-18T22:41:27.993Z,5.43
2023-02-18T22:43:56.543Z,2.47
2023-02-18T22:46:23.711Z,5.03
2023-02-18T22:48:51.322Z,3.13
2023-02-18T22:51:19.934Z,2.53
2023-02-18T22:53:46.915Z,2.67
2023-02-18T22:56:18.252Z,3.17
2023-02-18T22:58:47.019Z,3.40
2023-02-18T23:01:25.564Z,6.57
2023-02-18T23:03:53.458Z,2.85
2023-02-18T23:06:21.702Z,3.08
2023-02-18T23:08:49.524Z,2.72
2023-02-18T23:11:19.944Z,1.40
2023-02-18T23:14:06.389Z,1.90
2023-02-18T23:16:53.680Z,2.33
2023-02-18T23:19:20.801Z,2.50
2023-02-18T23:21:48.145Z,3.08
2023-02-18T23:24:15.090Z,3.28
2023-02-18T23:26:42.287Z,2.35
2023-02-18T23:29:09.517Z,2.10
2023-02-18T23:31:39.521Z,2.03
2023-02-18T23:34:08.225Z,1.60
2023-02-18T23:36:35.930Z,1.95
2023-02-18T23:39:10.674Z,3.92
2023-02-18T23:41:37.916Z,3.30
2023-02-18T23:44:10.518Z,1.92
2023-02-18T23:46:38.082Z,1.97
2023-02-18T23:49:05.462Z,2.75
2023-02-18T23:51:33.050Z,1.55
2023-02-18T23:54:02.545Z,1.52
2023-02-18T23:56:29.325Z,2.05
2023-02-18T23:59:00.578Z,2.92
